createdAt,value
2017-07-11T00:00:01.432Z,17.50
2017-07-11T00:02:30.924Z,17.50
2017-07-11T00:05:00.328Z,17.60
2017-07-11T00:07:30.031Z,17.50
2017-07-11T00:09:59.452Z,17.40
2017-07-11T00:12:28.955Z,17.30
2017-07-11T00:14:58.635Z,17.10
2017-07-11T00:17:28.338Z,17.00
2017-07-11T00:19:57.754Z,17.10
2017-07-11T00:22:27.452Z,17.10
2017-07-11T00:24:57.145Z,17.10
2017-07-11T00:27:27.624Z,17.00
2017-07-11T00:29:57.337Z,16.90
2017-07-11T00:32:27.048Z,16.90
2017-07-11T00:34:56.711Z,16.90
2017-07-11T00:37:27.179Z,16.80
2017-07-11T00:39:56.877Z,16.70
2017-07-11T00:42:26.616Z,16.70
2017-07-11T00:44:56.311Z,16.70
2017-07-11T00:47:25.985Z,16.70
2017-07-11T00:49:55.691Z,16.70
2017-07-11T00:52:26.150Z,16.80
2017-07-11T00:54:55.850Z,16.80
2017-07-11T00:57:25.569Z,16.90
2017-07-11T00:59:55.285Z,16.90
2017-07-11T01:02:24.977Z,17.00
2017-07-11T01:04:54.664Z,16.90
2017-07-11T01:07:25.095Z,16.90
2017-07-11T01:09:55.576Z,16.90
2017-07-11T01:12:25.261Z,16.80
2017-07-11T01:14:54.973Z,16.80
2017-07-11T01:17:24.652Z,16.80
2017-07-11T01:19:55.117Z,16.80
2017-07-11T01:22:24.817Z,16.70
2017-07-11T01:24:54.498Z,16.80
2017-07-11T01:27:24.201Z,16.80
2017-07-11T01:29:53.888Z,16.80
2017-07-11T01:32:24.360Z,16.80
2017-07-11T01:34:54.038Z,16.80
2017-07-11T01:37:24.503Z,16.60
2017-07-11T01:39:53.827Z,16.60
2017-07-11T01:42:23.532Z,16.60
2017-07-11T01:44:52.852Z,16.60
2017-07-11T01:47:21.867Z,16.50
2017-07-11T01:49:51.366Z,16.50
2017-07-11T01:52:20.724Z,16.50
2017-07-11T01:54:50.418Z,16.50
2017-07-11T01:57:20.882Z,16.50
2017-07-11T01:59:50.545Z,16.50
2017-07-11T02:02:20.322Z,16.40
2017-07-11T02:04:49.799Z,16.30
2017-07-11T02:07:19.487Z,16.40
2017-07-11T02:09:49.185Z,16.40
2017-07-11T02:12:20.258Z,16.40
2017-07-11T02:14:49.602Z,16.30
2017-07-11T02:17:19.275Z,16.30
2017-07-11T02:19:48.966Z,16.20
2017-07-11T02:22:18.665Z,16.20
2017-07-11T02:24:49.119Z,16.30
2017-07-11T02:27:18.809Z,16.30
2017-07-11T02:29:48.508Z,16.40
2017-07-11T02:32:18.187Z,16.30
2017-07-11T02:34:47.882Z,16.30
2017-07-11T02:37:17.560Z,16.30
2017-07-11T02:39:47.249Z,16.30
2017-07-11T02:42:16.931Z,16.20
2017-07-11T02:44:47.399Z,16.20
2017-07-11T02:47:16.866Z,16.20
2017-07-11T02:49:47.134Z,16.30
2017-07-11T02:52:16.813Z,16.30
2017-07-11T02:54:47.261Z,16.10
2017-07-11T02:57:16.939Z,16.10
2017-07-11T02:59:47.391Z,16.00
2017-07-11T03:02:17.060Z,16.00
2017-07-11T03:04:46.766Z,15.90
2017-07-11T03:07:16.439Z,15.90
2017-07-11T03:09:46.113Z,15.90
2017-07-11T03:12:15.824Z,15.90
2017-07-11T03:14:45.505Z,15.90
2017-07-11T03:17:15.194Z,15.80
2017-07-11T03:19:45.619Z,15.80
2017-07-11T03:22:15.711Z,15.80
2017-07-11T03:24:45.377Z,15.70
2017-07-11T03:27:15.068Z,15.70
2017-07-11T03:29:44.774Z,15.70
2017-07-11T03:32:14.452Z,15.60
2017-07-11T03:34:44.127Z,15.50
2017-07-11T03:37:13.809Z,15.60
2017-07-11T03:39:43.536Z,15.50
2017-07-11T03:42:13.228Z,15.50
2017-07-11T03:44:42.928Z,15.60
2017-07-11T03:47:12.612Z,15.70
2017-07-11T03:49:42.297Z,15.70
2017-07-11T03:52:11.987Z,15.70
2017-07-11T03:54:41.661Z,15.60
2017-07-11T03:57:11.341Z,15.60
2017-07-11T03:59:41.789Z,15.60
2017-07-11T04:02:12.248Z,15.50
2017-07-11T04:04:41.923Z,15.50
2017-07-11T04:07:11.638Z,15.50
2017-07-11T04:09:41.381Z,15.60
2017-07-11T04:12:11.042Z,15.60
2017-07-11T04:14:41.508Z,15.50
2017-07-11T04:17:11.175Z,15.50
2017-07-11T04:19:40.873Z,15.60
2017-07-11T04:22:10.573Z,15.70
2017-07-11T04:24:40.280Z,15.80
2017-07-11T04:27:09.961Z,16.00
2017-07-11T04:29:39.661Z,16.10
2017-07-11T04:32:09.370Z,16.10
2017-07-11T04:34:39.054Z,16.00
2017-07-11T04:37:08.729Z,15.90
2017-07-11T04:39:38.428Z,15.70
2017-07-11T04:42:08.872Z,16.00
2017-07-11T04:44:38.560Z,16.00
2017-07-11T04:47:09.004Z,16.40
2017-07-11T04:49:38.699Z,16.40
2017-07-11T04:52:09.121Z,16.50
2017-07-11T04:54:39.583Z,16.70
2017-07-11T04:57:09.276Z,16.60
2017-07-11T04:59:38.968Z,16.70
2017-07-11T05:02:09.437Z,16.50
2017-07-11T05:04:39.111Z,16.40
2017-07-11T05:07:09.579Z,16.60
2017-07-11T05:09:39.260Z,16.60
2017-07-11T05:12:08.942Z,16.70
2017-07-11T05:14:39.395Z,16.90
2017-07-11T05:17:09.082Z,16.90
2017-07-11T05:19:39.539Z,16.70
2017-07-11T05:22:09.226Z,16.70
2017-07-11T05:24:38.919Z,16.80
2017-07-11T05:27:08.622Z,16.80
2017-07-11T05:29:39.059Z,16.80
2017-07-11T05:32:08.760Z,16.70
2017-07-11T05:34:39.205Z,17.00
2017-07-11T05:37:09.048Z,17.00
2017-07-11T05:39:38.461Z,17.10
2017-07-11T05:42:08.167Z,17.10
2017-07-11T05:44:37.890Z,17.10
2017-07-11T05:47:08.066Z,17.20
2017-07-11T05:49:37.778Z,17.20
2017-07-11T05:52:07.216Z,17.20
2017-07-11T05:54:37.413Z,17.40
2017-07-11T05:57:07.118Z,17.40
2017-07-11T05:59:36.557Z,17.70
2017-07-11T06:02:06.731Z,18.10
2017-07-11T06:04:36.148Z,18.10
2017-07-11T06:07:05.547Z,18.40
2017-07-11T06:09:35.022Z,18.60
2017-07-11T06:12:04.446Z,18.70
2017-07-11T06:14:33.867Z,19.10
2017-07-11T06:17:03.270Z,18.70
2017-07-11T06:19:32.703Z,18.50
2017-07-11T06:22:02.892Z,18.50
2017-07-11T06:24:32.313Z,18.50
2017-07-11T06:27:01.719Z,18.30
2017-07-11T06:29:31.116Z,18.00
2017-07-11T06:32:00.541Z,18.10
2017-07-11T06:34:30.726Z,18.40
2017-07-11T06:37:00.163Z,18.40
2017-07-11T06:39:30.350Z,19.30
2017-07-11T06:41:59.790Z,19.30
2017-07-11T06:44:29.969Z,19.40
2017-07-11T06:46:59.399Z,19.40
2017-07-11T06:49:28.886Z,19.30
2017-07-11T06:51:58.350Z,19.50
2017-07-11T06:54:27.778Z,19.90
2017-07-11T06:56:57.205Z,20.40
2017-07-11T06:59:26.619Z,20.50
2017-07-11T07:01:56.060Z,20.70
2017-07-11T07:04:25.477Z,20.70
2017-07-11T07:06:54.913Z,20.80
2017-07-11T07:09:24.329Z,20.70
2017-07-11T07:11:53.738Z,20.60
2017-07-11T07:14:23.154Z,20.40
2017-07-11T07:16:53.333Z,20.00
2017-07-11T07:19:22.749Z,19.90
2017-07-11T07:21:52.173Z,19.80
2017-07-11T07:24:21.589Z,20.10
2017-07-11T07:26:51.790Z,21.40
2017-07-11T07:29:21.211Z,21.30
2017-07-11T07:31:51.365Z,22.10
2017-07-11T07:34:20.796Z,22.10
2017-07-11T07:36:50.183Z,22.70
2017-07-11T07:39:19.607Z,23.20
2017-07-11T07:41:49.774Z,23.10
2017-07-11T07:44:19.199Z,23.00
2017-07-11T07:46:48.595Z,21.90
2017-07-11T07:49:18.012Z,22.50
2017-07-11T07:51:47.402Z,23.40
2017-07-11T07:54:16.482Z,24.30
2017-07-11T07:56:45.870Z,25.10
2017-07-11T07:59:15.281Z,25.80
2017-07-11T08:01:44.675Z,25.80
2017-07-11T08:04:14.080Z,24.70
2017-07-11T08:06:43.502Z,24.50
2017-07-11T08:09:13.034Z,23.70
2017-07-11T08:11:42.439Z,24.40
2017-07-11T08:14:11.829Z,24.90
2017-07-11T08:16:41.067Z,24.80
2017-07-11T08:19:11.231Z,25.20
2017-07-11T08:21:40.648Z,25.10
2017-07-11T08:24:10.034Z,25.20
2017-07-11T08:26:39.465Z,25.60
2017-07-11T08:29:08.991Z,25.70
2017-07-11T08:31:38.401Z,25.20
2017-07-11T08:34:07.809Z,24.80
2017-07-11T08:36:37.023Z,24.50
2017-07-11T08:39:06.425Z,24.60
2017-07-11T08:41:35.853Z,24.40
2017-07-11T08:44:05.293Z,24.60
2017-07-11T08:46:35.463Z,25.10
2017-07-11T08:49:04.867Z,25.10
2017-07-11T08:51:34.274Z,25.40
2017-07-11T08:54:03.682Z,25.60
2017-07-11T08:56:33.081Z,25.90
2017-07-11T08:59:02.500Z,26.50
2017-07-11T09:01:31.894Z,27.00
2017-07-11T09:04:01.313Z,27.10
2017-07-11T09:06:31.504Z,26.80
2017-07-11T09:09:00.919Z,26.80
2017-07-11T09:11:30.119Z,26.30
2017-07-11T09:13:59.546Z,26.50
2017-07-11T09:16:29.704Z,27.40
2017-07-11T09:18:59.137Z,27.30
2017-07-11T09:21:29.295Z,28.40
2017-07-11T09:23:58.744Z,28.40
2017-07-11T09:26:28.138Z,28.70
2017-07-11T09:28:57.570Z,29.40
2017-07-11T09:31:27.766Z,29.30
2017-07-11T09:33:57.204Z,29.30
2017-07-11T09:36:26.607Z,27.90
2017-07-11T09:38:56.016Z,26.60
2017-07-11T09:41:25.424Z,25.80
2017-07-11T09:43:55.187Z,25.40
2017-07-11T09:46:25.366Z,27.60
2017-07-11T09:48:54.774Z,27.60
2017-07-11T09:51:24.203Z,27.90
2017-07-11T09:53:53.601Z,27.20
2017-07-11T09:56:23.016Z,25.90
2017-07-11T09:58:52.399Z,25.90
2017-07-11T10:01:21.806Z,26.90
2017-07-11T10:03:51.247Z,27.00
2017-07-11T10:06:21.423Z,27.70
2017-07-11T10:08:50.828Z,27.60
2017-07-11T10:11:20.231Z,28.30
2017-07-11T10:13:49.627Z,29.50
2017-07-11T10:16:19.023Z,30.20
2017-07-11T10:18:48.417Z,29.90
2017-07-11T10:21:17.802Z,30.10
2017-07-11T10:23:47.213Z,29.50
2017-07-11T10:26:16.606Z,29.50
2017-07-11T10:28:46.028Z,27.60
2017-07-11T10:31:15.425Z,27.30
2017-07-11T10:33:44.486Z,27.60
2017-07-11T10:36:14.658Z,27.50
2017-07-11T10:38:44.092Z,27.50
2017-07-11T10:41:22.333Z,27.50
2017-07-11T10:43:52.528Z,28.20
2017-07-11T10:46:21.940Z,28.10
2017-07-11T10:48:51.354Z,28.10
2017-07-11T10:51:20.772Z,28.30
2017-07-11T10:53:50.976Z,28.10
2017-07-11T10:56:20.376Z,28.10
2017-07-11T10:58:49.782Z,28.50
2017-07-11T11:01:19.162Z,28.40
2017-07-11T11:03:48.581Z,27.90
2017-07-11T11:06:17.450Z,26.80
2017-07-11T11:08:46.833Z,25.90
2017-07-11T11:11:16.279Z,25.80
2017-07-11T11:13:45.668Z,26.40
2017-07-11T11:16:15.073Z,27.30
2017-07-11T11:18:44.482Z,28.00
2017-07-11T11:21:13.891Z,28.70
2017-07-11T11:23:43.319Z,28.60
2017-07-11T11:26:13.510Z,28.40
2017-07-11T11:28:42.889Z,28.40
2017-07-11T11:31:12.308Z,27.70
2017-07-11T11:33:41.707Z,27.60
2017-07-11T11:36:11.131Z,27.70
2017-07-11T11:38:40.533Z,28.50
2017-07-11T11:41:09.951Z,29.10
2017-07-11T11:43:39.426Z,28.50
2017-07-11T11:46:09.054Z,29.10
2017-07-11T11:48:38.455Z,29.50
2017-07-11T11:51:07.842Z,30.20
2017-07-11T11:53:37.428Z,30.90
2017-07-11T11:56:07.621Z,31.80
2017-07-11T11:58:37.041Z,31.70
2017-07-11T12:01:06.451Z,30.80
2017-07-11T12:03:36.649Z,30.60
2017-07-11T12:06:06.042Z,30.60
2017-07-11T12:08:35.453Z,31.70
2017-07-11T12:11:04.851Z,32.40
2017-07-11T12:13:34.279Z,31.70
2017-07-11T12:16:03.683Z,30.70
2017-07-11T12:18:33.890Z,29.10
2017-07-11T12:21:04.084Z,28.30
2017-07-11T12:23:33.513Z,28.30
2017-07-11T12:26:02.904Z,28.10
2017-07-11T12:28:32.316Z,27.30
2017-07-11T12:31:01.712Z,27.90
2017-07-11T12:33:31.136Z,29.70
2017-07-11T12:36:00.530Z,30.00
2017-07-11T12:38:29.758Z,29.00
2017-07-11T12:40:59.968Z,29.60
2017-07-11T12:43:29.358Z,29.60
2017-07-11T12:45:58.797Z,30.50
2017-07-11T12:48:28.195Z,30.00
2017-07-11T12:50:57.610Z,29.90
2017-07-11T12:53:26.998Z,30.30
2017-07-11T12:55:56.431Z,31.10
2017-07-11T12:58:25.826Z,32.10
2017-07-11T13:00:55.251Z,32.80
2017-07-11T13:03:24.658Z,32.80
2017-07-11T13:05:54.071Z,31.90
2017-07-11T13:08:23.453Z,31.80
2017-07-11T13:10:52.867Z,31.60
2017-07-11T13:13:22.271Z,30.50
2017-07-11T13:15:51.741Z,30.10
2017-07-11T13:18:21.148Z,31.10
2017-07-11T13:20:50.551Z,31.30
2017-07-11T13:23:19.978Z,32.10
2017-07-11T13:25:49.410Z,31.50
2017-07-11T13:28:19.598Z,30.00
2017-07-11T13:30:48.998Z,30.00
2017-07-11T13:33:18.418Z,29.30
2017-07-11T13:35:47.952Z,29.00
2017-07-11T13:38:18.151Z,29.00
2017-07-11T13:40:47.549Z,28.90
2017-07-11T13:43:17.744Z,28.10
2017-07-11T13:45:47.144Z,28.10
2017-07-11T13:48:16.600Z,27.90
2017-07-11T13:50:46.029Z,27.80
2017-07-11T13:53:15.445Z,27.00
2017-07-11T13:55:44.854Z,26.80
2017-07-11T13:58:14.288Z,26.40
2017-07-11T14:00:44.441Z,25.40
2017-07-11T14:03:13.869Z,25.40
2017-07-11T14:05:43.270Z,24.80
2017-07-11T14:08:12.701Z,23.90
2017-07-11T14:10:42.143Z,22.90
2017-07-11T14:13:11.543Z,22.10
2017-07-11T14:15:40.989Z,21.60
2017-07-11T14:18:10.407Z,21.30
2017-07-11T14:20:39.842Z,21.20
2017-07-11T14:23:09.257Z,21.20
2017-07-11T14:25:38.673Z,21.10
2017-07-11T14:28:08.113Z,21.10
2017-07-11T14:30:37.547Z,21.10
2017-07-11T14:33:07.545Z,21.30
2017-07-11T14:35:36.991Z,21.30
2017-07-11T14:38:06.426Z,21.40
2017-07-11T14:40:35.868Z,21.40
2017-07-11T14:43:06.047Z,22.10
2017-07-11T14:45:35.483Z,22.10
2017-07-11T14:48:04.882Z,22.40
2017-07-11T14:50:34.299Z,22.80
2017-07-11T14:53:04.474Z,23.30
2017-07-11T14:55:33.942Z,23.30
2017-07-11T14:58:04.106Z,23.40
2017-07-11T15:00:33.523Z,23.40
2017-07-11T15:03:02.953Z,23.60
2017-07-11T15:05:33.120Z,23.80
2017-07-11T15:08:02.546Z,23.80
2017-07-11T15:10:31.934Z,24.00
2017-07-11T15:13:01.361Z,24.10
2017-07-11T15:15:30.770Z,24.20
2017-07-11T15:18:00.225Z,24.10
2017-07-11T15:20:29.630Z,24.20
2017-07-11T15:22:59.053Z,24.30
2017-07-11T15:25:28.455Z,24.40
2017-07-11T15:27:57.876Z,24.50
2017-07-11T15:30:27.300Z,24.40
2017-07-11T15:32:56.714Z,24.60
2017-07-11T15:35:26.896Z,24.60
2017-07-11T15:37:56.316Z,24.60
2017-07-11T15:40:25.719Z,24.60
2017-07-11T15:42:55.109Z,24.60
2017-07-11T15:45:24.614Z,24.70
2017-07-11T15:47:54.011Z,24.80
2017-07-11T15:50:23.546Z,24.90
2017-07-11T15:52:52.938Z,25.00
2017-07-11T15:55:22.371Z,24.80
2017-07-11T15:57:52.548Z,25.00
2017-07-11T16:00:21.974Z,25.00
2017-07-11T16:02:51.379Z,25.10
2017-07-11T16:05:20.790Z,25.10
2017-07-11T16:07:50.948Z,25.00
2017-07-11T16:10:20.369Z,25.00
2017-07-11T16:12:49.762Z,24.80
2017-07-11T16:15:19.229Z,24.70
2017-07-11T16:17:49.414Z,24.50
2017-07-11T16:20:18.835Z,24.40
2017-07-11T16:22:48.258Z,24.40
2017-07-11T16:25:18.454Z,24.40
2017-07-11T16:27:47.955Z,24.30
2017-07-11T16:30:17.346Z,24.40
2017-07-11T16:32:46.767Z,24.40
2017-07-11T16:35:16.177Z,24.30
2017-07-11T16:37:45.604Z,24.10
2017-07-11T16:40:15.773Z,24.20
2017-07-11T16:42:45.198Z,24.20
2017-07-11T16:45:14.602Z,24.10
2017-07-11T16:47:44.034Z,24.00
2017-07-11T16:50:14.219Z,23.90
2017-07-11T16:52:43.644Z,23.90
2017-07-11T16:55:13.102Z,23.90
2017-07-11T16:57:42.583Z,23.80
2017-07-11T17:00:11.997Z,24.00
2017-07-11T17:02:41.422Z,24.20
2017-07-11T17:05:10.828Z,24.20
2017-07-11T17:07:40.260Z,24.20
2017-07-11T17:10:09.690Z,24.20
2017-07-11T17:12:39.876Z,24.20
2017-07-11T17:15:09.336Z,24.20
2017-07-11T17:17:38.764Z,24.20
2017-07-11T17:20:08.200Z,24.20
2017-07-11T17:22:37.601Z,24.20
2017-07-11T17:25:07.023Z,24.20
2017-07-11T17:27:37.199Z,24.10
2017-07-11T17:30:06.632Z,24.10
2017-07-11T17:32:36.029Z,24.00
2017-07-11T17:35:05.442Z,24.00
2017-07-11T17:37:34.844Z,24.00
2017-07-11T17:40:04.283Z,24.00
2017-07-11T17:42:33.689Z,24.00
2017-07-11T17:45:03.097Z,23.90
2017-07-11T17:47:32.518Z,23.80
2017-07-11T17:50:01.915Z,23.80
2017-07-11T17:52:31.329Z,23.70
2017-07-11T17:55:00.717Z,23.60
2017-07-11T17:57:30.210Z,23.50
2017-07-11T17:59:59.609Z,23.50
2017-07-11T18:02:29.240Z,23.40
2017-07-11T18:04:58.704Z,23.30
2017-07-11T18:07:28.915Z,23.30
2017-07-11T18:09:58.339Z,23.30
2017-07-11T18:12:28.535Z,23.30
2017-07-11T18:14:57.974Z,23.30
2017-07-11T18:17:27.453Z,23.30
2017-07-11T18:19:56.847Z,23.30
2017-07-11T18:22:26.286Z,23.20
2017-07-11T18:24:55.705Z,23.10
2017-07-11T18:27:27.219Z,22.90
2017-07-11T18:29:57.413Z,22.80
2017-07-11T18:32:26.887Z,22.80
2017-07-11T18:34:56.293Z,22.80
2017-07-11T18:37:25.710Z,22.70
2017-07-11T18:39:55.116Z,22.70
2017-07-11T18:42:24.515Z,22.60
2017-07-11T18:44:53.948Z,22.60
2017-07-11T18:47:23.339Z,22.60
2017-07-11T18:49:52.786Z,22.60
2017-07-11T18:52:22.946Z,22.40
2017-07-11T18:54:52.373Z,22.40
2017-07-11T18:57:21.780Z,22.50
2017-07-11T18:59:51.277Z,22.50
2017-07-11T19:02:20.685Z,22.50
2017-07-11T19:04:50.111Z,22.40
2017-07-11T19:07:20.293Z,22.40
2017-07-11T19:09:49.712Z,22.40
2017-07-11T19:12:19.126Z,22.40
2017-07-11T19:14:48.548Z,22.30
2017-07-11T19:17:17.752Z,22.30
2017-07-11T19:19:48.308Z,22.10
2017-07-11T19:22:17.763Z,22.10
2017-07-11T19:24:47.199Z,22.00
2017-07-11T19:27:16.665Z,22.00
2017-07-11T19:29:46.119Z,22.00
2017-07-11T19:32:15.571Z,21.90
2017-07-11T19:34:44.979Z,21.80
2017-07-11T19:37:15.170Z,21.70
2017-07-11T19:39:44.581Z,21.70
2017-07-11T19:42:14.003Z,21.70
2017-07-11T19:44:43.401Z,21.70
2017-07-11T19:47:12.876Z,21.70
2017-07-11T19:49:42.492Z,21.80
2017-07-11T19:52:12.011Z,21.80
2017-07-11T19:54:41.234Z,21.80
2017-07-11T19:57:11.420Z,21.70
2017-07-11T19:59:40.836Z,21.70
2017-07-11T20:02:10.261Z,21.70
2017-07-11T20:04:40.431Z,21.70
2017-07-11T20:07:09.852Z,21.70
2017-07-11T20:09:39.292Z,21.70
2017-07-11T20:12:09.484Z,21.70
2017-07-11T20:14:38.930Z,21.60
2017-07-11T20:17:09.140Z,21.60
2017-07-11T20:19:39.343Z,21.60
2017-07-11T20:22:08.783Z,21.60
2017-07-11T20:24:38.239Z,21.60
2017-07-11T20:27:07.682Z,21.60
2017-07-11T20:29:37.877Z,21.60
2017-07-11T20:32:07.279Z,21.60
2017-07-11T20:34:36.712Z,21.60
2017-07-11T20:37:06.114Z,21.50
2017-07-11T20:39:35.547Z,21.50
2017-07-11T20:42:04.960Z,21.50
2017-07-11T20:44:34.384Z,21.60
2017-07-11T20:47:03.796Z,21.50
2017-07-11T20:49:33.209Z,21.50
2017-07-11T20:52:02.617Z,21.40
2017-07-11T20:54:32.828Z,21.20
2017-07-11T20:57:02.452Z,21.20
2017-07-11T20:59:31.871Z,21.20
2017-07-11T21:02:01.296Z,21.10
2017-07-11T21:04:30.707Z,21.00
2017-07-11T21:06:59.781Z,21.00
2017-07-11T21:09:29.223Z,21.00
2017-07-11T21:11:58.650Z,21.00
2017-07-11T21:14:28.065Z,20.90
2017-07-11T21:16:58.253Z,20.80
2017-07-11T21:19:28.143Z,20.80
2017-07-11T21:21:57.695Z,20.80
2017-07-11T21:24:27.116Z,20.70
2017-07-11T21:26:57.304Z,20.60
2017-07-11T21:29:26.721Z,20.60
2017-07-11T21:31:56.156Z,20.50
2017-07-11T21:34:26.557Z,20.40
2017-07-11T21:36:56.151Z,20.30
2017-07-11T21:39:25.555Z,20.20
2017-07-11T21:41:54.965Z,20.10
2017-07-11T21:44:24.404Z,20.10
2017-07-11T21:46:53.812Z,20.00
2017-07-11T21:49:23.231Z,20.00
2017-07-11T21:51:52.630Z,19.90
2017-07-11T21:54:22.063Z,19.80
2017-07-11T21:56:51.470Z,19.80
2017-07-11T21:59:20.890Z,19.70
2017-07-11T22:01:50.333Z,19.70
2017-07-11T22:04:19.789Z,19.70
2017-07-11T22:06:49.241Z,19.70
2017-07-11T22:09:18.663Z,19.70
2017-07-11T22:11:48.058Z,19.60
2017-07-11T22:14:17.483Z,19.60
2017-07-11T22:16:46.891Z,19.50
2017-07-11T22:19:16.321Z,19.50
2017-07-11T22:21:45.718Z,19.70
2017-07-11T22:24:15.155Z,19.70
2017-07-11T22:26:45.317Z,19.70
2017-07-11T22:29:14.747Z,19.60
2017-07-11T22:31:44.181Z,19.60
2017-07-11T22:34:13.387Z,19.50
2017-07-11T22:36:42.946Z,19.50
2017-07-11T22:39:12.353Z,19.40
2017-07-11T22:41:41.769Z,19.50
2017-07-11T22:44:11.274Z,19.60
2017-07-11T22:46:40.705Z,19.60
2017-07-11T22:49:10.868Z,19.50
2017-07-11T22:51:40.307Z,19.50
2017-07-11T22:54:09.700Z,19.50
2017-07-11T22:56:39.119Z,19.50
2017-07-11T22:59:09.332Z,19.40
2017-07-11T23:01:38.759Z,19.40
2017-07-11T23:04:08.051Z,19.30
2017-07-11T23:06:38.313Z,19.40
2017-07-11T23:09:07.732Z,19.40
2017-07-11T23:11:37.143Z,19.30
2017-07-11T23:14:06.554Z,19.30
2017-07-11T23:16:35.958Z,19.10
2017-07-11T23:19:05.383Z,19.10
2017-07-11T23:21:35.558Z,19.00
2017-07-11T23:24:04.997Z,19.00
2017-07-11T23:26:34.508Z,19.00
2017-07-11T23:29:03.942Z,19.00
2017-07-11T23:31:33.351Z,19.10
2017-07-11T23:34:02.562Z,19.00
2017-07-11T23:36:31.991Z,19.00
2017-07-11T23:39:01.410Z,19.00
2017-07-11T23:41:30.840Z,18.90
2017-07-11T23:44:01.028Z,18.80
2017-07-11T23:46:30.428Z,18.80
2017-07-11T23:48:59.849Z,18.70
2017-07-11T23:51:29.252Z,18.60
2017-07-11T23:53:58.675Z,18.60
2017-07-11T23:56:28.847Z,18.50
2017-07-11T23:58:58.272Z,18.40
